Time;durP1;ratioP1;P1;durP2;ratioP2;P2;SDS_P1;SDS_P2;PMS_P1;PMS_P2;Temp;Humidity;BMP_temperature;BMP_pressure;BME280_temperature;BME280_humidity;BME280_pressure;Samples;Min_cycle;Max_cycle;Signal;HPM_P1;HPM_P2
2021/06/17 00:00:37;;;;;;;9.37;8.47;;;19.80;77.70;;;;;;10326419;28;20223;-27
2021/06/17 00:05:59;;;;;;;9.80;8.80;;;19.80;77.60;;;;;;10320673;28;20278;-28
2021/06/17 00:11:22;;;;;;;10.80;9.10;;;19.80;77.50;;;;;;10323764;28;20219;-28
2021/06/17 00:16:45;;;;;;;10.40;8.97;;;19.80;77.80;;;;;;10332734;28;20198;-28
2021/06/17 00:22:07;;;;;;;10.20;9.30;;;19.80;77.60;;;;;;10329170;28;20608;-28
2021/06/17 00:27:31;;;;;;;8.97;7.93;;;19.80;77.80;;;;;;10328940;28;20570;-28
2021/06/17 00:32:54;;;;;;;10.00;9.00;;;19.80;77.80;;;;;;10328281;28;20226;-27
2021/06/17 00:38:17;;;;;;;10.63;9.53;;;19.80;77.70;;;;;;10329057;28;20281;-26
2021/06/17 00:43:41;;;;;;;9.87;8.93;;;19.80;77.60;;;;;;10327766;28;20230;-27
2021/06/17 00:49:04;;;;;;;9.57;8.60;;;19.80;77.70;;;;;;10330130;28;20673;-29
2021/06/17 00:54:35;;;;;;;9.77;8.93;;;19.80;77.80;;;;;;10327585;28;20218;-27
2021/06/17 00:59:59;;;;;;;9.80;8.80;;;19.80;77.70;;;;;;10328384;28;20354;-28
2021/06/17 01:05:22;;;;;;;11.77;9.57;;;19.80;78.00;;;;;;10326820;28;20219;-26
2021/06/17 01:10:53;;;;;;;9.97;8.97;;;19.80;77.90;;;;;;10321735;28;20206;-27
2021/06/17 01:16:21;;;;;;;10.73;9.67;;;19.80;78.00;;;;;;10320145;28;20684;-28
2021/06/17 01:22:02;;;;;;;10.90;9.80;;;19.80;78.10;;;;;;10326012;28;20706;-28
2021/06/17 01:27:39;;;;;;;10.43;9.53;;;19.90;78.50;;;;;;10327610;28;20194;-28
2021/06/17 01:33:05;;;;;;;13.33;9.67;;;19.90;78.10;;;;;;10327244;28;20230;-27
2021/06/17 01:38:28;;;;;;;12.10;9.63;;;19.90;77.70;;;;;;10323163;28;20203;-26
2021/06/17 01:43:50;;;;;;;10.63;9.57;;;19.90;77.80;;;;;;10329989;28;20211;-26
2021/06/17 01:49:15;;;;;;;14.10;10.90;;;19.90;77.60;;;;;;10327240;28;20705;-28
2021/06/17 01:54:40;;;;;;;11.00;9.87;;;19.90;77.80;;;;;;10326389;28;20234;-28
2021/06/17 02:00:05;;;;;;;12.03;10.27;;;19.90;77.70;;;;;;10327003;28;20224;-27
2021/06/17 02:05:30;;;;;;;11.67;10.47;;;19.80;77.60;;;;;;10325224;28;20221;-28
2021/06/17 02:10:53;;;;;;;11.53;10.43;;;19.90;77.50;;;;;;10359925;28;20241;-27
2021/06/17 02:16:16;;;;;;;12.90;11.50;;;19.90;77.70;;;;;;10329110;28;20202;-26
2021/06/17 02:21:41;;;;;;;14.37;10.70;;;19.90;77.60;;;;;;10326652;28;20660;-25
2021/06/17 02:27:09;;;;;;;13.00;11.70;;;19.90;77.50;;;;;;10325878;28;20203;-27
2021/06/17 02:32:33;;;;;;;14.10;12.60;;;19.90;77.30;;;;;;10325922;28;20222;-27
2021/06/17 02:37:59;;;;;;;13.40;12.10;;;19.90;77.40;;;;;;10324819;28;20199;-28
2021/06/17 02:43:22;;;;;;;12.60;11.30;;;19.90;77.30;;;;;;10324445;28;20597;-27
2021/06/17 02:48:44;;;;;;;13.10;11.80;;;19.90;77.60;;;;;;10325504;28;20787;-28
2021/06/17 02:54:08;;;;;;;13.50;12.17;;;19.90;77.50;;;;;;10325662;28;20219;-30
2021/06/17 02:59:44;;;;;;;13.90;11.97;;;19.90;77.40;;;;;;10324375;28;20689;-27
2021/06/17 03:05:14;;;;;;;14.57;12.97;;;19.90;77.60;;;;;;10324121;28;20245;-26
2021/06/17 03:10:37;;;;;;;12.97;11.63;;;19.90;77.40;;;;;;10317619;28;20194;-27
2021/06/17 03:16:01;;;;;;;15.10;12.60;;;19.90;77.20;;;;;;10324084;28;20205;-26
2021/06/17 03:21:25;;;;;;;13.97;12.43;;;19.90;77.10;;;;;;10324356;28;20222;-26
2021/06/17 03:26:50;;;;;;;18.87;12.70;;;19.90;77.40;;;;;;10288109;28;20270;-26
2021/06/17 03:32:13;;;;;;;13.67;12.27;;;19.90;77.30;;;;;;10283157;28;20219;-27
2021/06/17 03:37:36;;;;;;;13.70;12.40;;;19.90;77.50;;;;;;10290822;28;20199;-27
2021/06/17 03:43:01;;;;;;;13.47;12.17;;;19.90;77.80;;;;;;10290820;28;20220;-26
2021/06/17 03:48:23;;;;;;;13.93;12.53;;;19.90;77.60;;;;;;10329180;28;20195;-27
2021/06/17 03:53:47;;;;;;;16.30;12.33;;;19.90;77.80;;;;;;10333126;28;20686;-26
2021/06/17 03:59:10;;;;;;;14.87;13.37;;;19.80;77.70;;;;;;10330262;28;20222;-27
2021/06/17 04:04:33;;;;;;;14.10;12.70;;;19.90;77.80;;;;;;10330020;28;20226;-26
2021/06/17 04:09:58;;;;;;;14.40;13.00;;;19.90;77.70;;;;;;10329795;28;20213;-26
2021/06/17 04:15:23;;;;;;;13.73;12.33;;;19.90;77.70;;;;;;10328990;28;20223;-27
2021/06/17 04:20:45;;;;;;;14.73;13.07;;;19.80;77.70;;;;;;10328673;28;20589;-26
2021/06/17 04:26:09;;;;;;;14.60;12.40;;;19.90;77.70;;;;;;10328973;28;20209;-26
2021/06/17 04:31:33;;;;;;;13.70;12.30;;;19.90;77.60;;;;;;10329029;28;20348;-26
2021/06/17 04:36:56;;;;;;;14.73;12.23;;;19.90;77.60;;;;;;10328654;28;20723;-24
2021/06/17 04:42:19;;;;;;;14.53;11.80;;;19.90;77.70;;;;;;10328984;28;20216;-26
2021/06/17 04:47:49;;;;;;;13.10;11.93;;;19.90;77.50;;;;;;10345830;28;20279;-26
2021/06/17 04:53:13;;;;;;;12.70;11.50;;;19.90;77.70;;;;;;10321958;28;20725;-26
2021/06/17 04:58:36;;;;;;;12.20;11.10;;;19.90;77.80;;;;;;10328345;28;20209;-26
2021/06/17 05:04:00;;;;;;;12.70;11.47;;;19.90;77.70;;;;;;10327483;28;20215;-28
2021/06/17 05:15:02;;;;;;;11.23;10.13;;;19.90;78.10;;;;;;10326750;28;20245;-28
2021/06/17 05:20:26;;;;;;;11.23;10.23;;;19.90;78.00;;;;;;10322279;28;20257;-28
2021/06/17 05:25:50;;;;;;;11.43;10.33;;;19.80;78.10;;;;;;10327319;28;20197;-28
2021/06/17 05:31:13;;;;;;;12.57;11.37;;;19.80;78.10;;;;;;10337511;22;20593;-74
2021/06/17 05:36:30;;;;;;;12.07;9.93;;;19.70;78.10;;;;;;10523204;28;20685;-28
2021/06/17 05:41:52;;;;;;;11.77;10.67;;;19.70;78.30;;;;;;10532313;28;20216;-29
2021/06/17 05:47:14;;;;;;;11.40;10.40;;;19.70;78.30;;;;;;10479208;28;20203;-32
2021/06/17 05:52:37;;;;;;;12.10;10.87;;;19.70;78.00;;;;;;10492245;28;20211;-29
2021/06/17 05:57:59;;;;;;;14.07;12.73;;;19.90;78.10;;;;;;10461960;28;20694;-26
2021/06/17 06:03:22;;;;;;;12.93;11.70;;;19.90;79.10;;;;;;10496045;28;20220;-29
2021/06/17 06:08:46;;;;;;;12.67;11.47;;;20.00;78.70;;;;;;10455707;28;20197;-27
2021/06/17 06:14:08;;;;;;;14.13;12.60;;;20.10;78.80;;;;;;10475231;28;20763;-32
2021/06/17 06:19:31;;;;;;;12.60;11.30;;;20.20;79.20;;;;;;10482134;28;20243;-29
2021/06/17 06:24:55;;;;;;;12.60;11.40;;;20.20;79.00;;;;;;10489650;28;20647;-33
2021/06/17 06:30:18;;;;;;;14.77;12.43;;;20.20;79.40;;;;;;10453965;28;20220;-29
2021/06/17 06:35:40;;;;;;;12.53;11.33;;;20.30;79.40;;;;;;10454214;28;20224;-28
2021/06/17 06:41:04;;;;;;;12.73;11.43;;;20.30;79.10;;;;;;10460535;28;20265;-30
2021/06/17 06:46:26;;;;;;;13.17;11.50;;;20.30;79.20;;;;;;10480468;28;20247;-30
2021/06/17 06:51:48;;;;;;;14.13;11.17;;;20.40;79.70;;;;;;10486524;28;20216;-27
2021/06/17 06:57:12;;;;;;;14.00;11.33;;;20.40;79.50;;;;;;10452457;28;20197;-28
2021/06/17 07:02:34;;;;;;;13.33;11.50;;;20.40;79.50;;;;;;10473505;28;20228;-35
2021/06/17 07:07:56;;;;;;;12.23;10.40;;;20.50;79.90;;;;;;10489054;28;20208;-33
2021/06/17 07:13:22;;;;;;;14.07;11.00;;;20.50;79.40;;;;;;10463506;28;20220;-31
2021/06/17 07:18:44;;;;;;;12.27;11.07;;;20.50;79.90;;;;;;10492370;28;20667;-27
2021/06/17 07:24:06;;;;;;;12.07;10.60;;;20.50;79.40;;;;;;10493500;28;20591;-27
2021/06/17 07:29:30;;;;;;;11.60;10.40;;;20.50;79.40;;;;;;10531421;28;20198;-26
2021/06/17 07:34:52;;;;;;;12.17;10.03;;;20.60;79.70;;;;;;10497396;28;20231;-30
2021/06/17 07:40:15;;;;;;;16.30;10.70;;;20.60;78.80;;;;;;10493748;28;20596;-31
2021/06/17 07:45:38;;;;;;;14.70;10.67;;;20.60;79.40;;;;;;10503998;28;20220;-35
2021/06/17 07:51:01;;;;;;;12.60;10.77;;;20.70;79.60;;;;;;10502064;28;20760;-29
2021/06/17 07:56:23;;;;;;;12.03;10.83;;;20.70;79.80;;;;;;10492468;28;20192;-34
2021/06/17 08:01:48;;;;;;;11.57;9.80;;;20.70;79.80;;;;;;10491339;28;20220;-30
2021/06/17 08:07:10;;;;;;;11.00;9.73;;;20.70;79.30;;;;;;10493278;28;20714;-30
2021/06/17 08:12:32;;;;;;;13.47;11.00;;;20.70;79.40;;;;;;10499546;28;20203;-33
2021/06/17 08:17:55;;;;;;;11.93;10.60;;;20.80;79.60;;;;;;10496425;28;20199;-28
2021/06/17 08:23:19;;;;;;;11.60;10.40;;;20.70;80.10;;;;;;10491390;28;20354;-27
2021/06/17 08:28:41;;;;;;;12.07;9.97;;;20.70;80.00;;;;;;10459282;28;20206;-30
2021/06/17 08:34:05;;;;;;;11.97;9.97;;;20.70;79.60;;;;;;10458511;28;20235;-34
2021/06/17 08:39:28;;;;;;;12.20;9.90;;;20.70;79.10;;;;;;10479128;28;20203;-24
2021/06/17 08:44:50;;;;;;;13.23;9.70;;;20.60;78.40;;;;;;10499082;28;20686;-31
2021/06/17 08:50:15;;;;;;;12.87;9.17;;;20.60;78.70;;;;;;10498152;28;20197;-32
2021/06/17 08:55:39;;;;;;;10.73;9.73;;;20.50;78.90;;;;;;10461743;28;20228;-28
2021/06/17 09:01:10;;;;;;;12.83;9.60;;;20.50;79.10;;;;;;10465532;28;20220;-32
2021/06/17 09:06:34;;;;;;;10.67;9.00;;;20.50;79.30;;;;;;10458973;28;20802;-29
2021/06/17 09:11:56;;;;;;;13.23;9.20;;;20.50;79.10;;;;;;10474150;28;20674;-32
2021/06/17 09:17:18;;;;;;;11.33;9.20;;;20.50;78.90;;;;;;10484099;28;20204;-34
2021/06/17 09:22:42;;;;;;;10.20;8.07;;;20.60;78.80;;;;;;10476258;28;20224;-28
2021/06/17 09:28:05;;;;;;;9.37;8.57;;;20.50;78.90;;;;;;10456648;28;20197;-28
2021/06/17 09:33:27;;;;;;;8.87;8.07;;;20.50;79.20;;;;;;10455809;28;20307;-31
2021/06/17 09:38:53;;;;;;;9.90;8.20;;;20.30;79.40;;;;;;10522599;28;20192;-28
2021/06/17 09:44:30;;;;;;;10.00;7.60;;;20.30;79.60;;;;;;10504405;28;20714;-27
2021/06/17 09:49:54;;;;;;;9.60;8.03;;;20.30;79.70;;;;;;10479417;28;20196;-29
2021/06/17 09:55:42;;;;;;;8.67;7.83;;;20.20;79.80;;;;;;10457529;28;20213;-27
2021/06/17 10:01:06;;;;;;;8.50;7.70;;;20.20;79.80;;;;;;10492661;28;20223;-29
2021/06/17 10:06:29;;;;;;;9.50;7.47;;;20.20;79.60;;;;;;10456143;28;20209;-32
2021/06/17 10:11:53;;;;;;;8.23;7.27;;;20.20;79.80;;;;;;10454599;28;20212;-33
2021/06/17 10:17:17;;;;;;;7.77;7.07;;;20.20;79.80;;;;;;10486953;28;20196;-29
2021/06/17 10:22:40;;;;;;;8.00;7.20;;;20.30;79.50;;;;;;10516232;28;20728;-28
2021/06/17 10:28:04;;;;;;;7.63;6.90;;;20.40;79.70;;;;;;10477081;28;20205;-29
2021/06/17 10:33:27;;;;;;;8.50;6.90;;;20.50;78.60;;;;;;10453323;28;20224;-28
2021/06/17 10:39:14;;;;;;;7.80;7.00;;;20.50;78.10;;;;;;10454792;28;20224;-32
2021/06/17 10:44:42;;;;;;;8.73;7.10;;;20.50;78.10;;;;;;10492284;28;20227;-30
2021/06/17 10:50:06;;;;;;;7.53;5.97;;;20.50;77.80;;;;;;10485192;28;20212;-32
2021/06/17 10:55:28;;;;;;;7.37;5.90;;;20.50;77.30;;;;;;10462177;28;20224;-36
2021/06/17 11:00:51;;;;;;;6.60;6.00;;;20.50;77.10;;;;;;10452549;28;20213;-36
2021/06/17 11:06:14;;;;;;;8.43;5.93;;;20.50;77.20;;;;;;10486798;28;20199;-33
2021/06/17 11:11:36;;;;;;;8.67;5.77;;;20.60;77.10;;;;;;10502877;28;20223;-35
2021/06/17 11:16:59;;;;;;;6.03;5.43;;;20.60;76.20;;;;;;10501097;28;20200;-31
2021/06/17 11:22:34;;;;;;;6.93;5.90;;;20.60;76.30;;;;;;10481828;28;20220;-29
2021/06/17 11:27:58;;;;;;;6.50;5.80;;;20.80;75.50;;;;;;10493068;28;20201;-31
2021/06/17 11:33:43;;;;;;;6.60;5.70;;;20.80;74.90;;;;;;10467489;22;20230;-28
2021/06/17 11:39:05;;;;;;;8.03;5.47;;;20.70;75.30;;;;;;10361562;28;20195;-29
2021/06/17 11:44:30;;;;;;;12.10;6.20;;;20.80;75.10;;;;;;10414072;28;20234;-30
2021/06/17 11:49:54;;;;;;;9.53;5.53;;;20.80;75.50;;;;;;10361624;28;20199;-28
2021/06/17 11:55:16;;;;;;;5.50;5.00;;;20.80;75.20;;;;;;10359877;28;20226;-29
2021/06/17 12:00:38;;;;;;;6.90;5.30;;;20.80;75.40;;;;;;10348552;28;20214;-29
2021/06/17 12:06:10;;;;;;;5.60;5.10;;;20.70;75.00;;;;;;10358060;28;20219;-28
2021/06/17 12:11:33;;;;;;;4.53;4.17;;;20.80;74.50;;;;;;10365309;28;20385;-27
2021/06/17 12:16:58;;;;;;;8.57;4.97;;;20.90;73.20;;;;;;10339646;28;20203;-30
2021/06/17 12:22:22;;;;;;;5.57;4.60;;;20.90;73.00;;;;;;10404763;28;20239;-27
2021/06/17 12:27:46;;;;;;;5.23;3.87;;;20.90;73.90;;;;;;10330976;28;20230;-28
2021/06/17 12:33:11;;;;;;;5.97;4.30;;;20.80;73.80;;;;;;10329833;28;20234;-29
2021/06/17 12:38:36;;;;;;;4.70;4.30;;;20.80;72.70;;;;;;10335641;28;20190;-27
2021/06/17 12:43:58;;;;;;;5.23;4.50;;;20.90;73.50;;;;;;10519999;28;20227;-30
2021/06/17 12:55:10;;;;;;;5.27;4.53;;;20.90;72.30;;;;;;10369437;28;20688;-32
2021/06/17 13:00:32;;;;;;;5.53;4.67;;;20.80;73.10;;;;;;10367339;28;20245;-31
2021/06/17 13:05:56;;;;;;;8.23;4.03;;;20.80;72.80;;;;;;10365621;28;20219;-30
2021/06/17 13:11:28;;;;;;;7.07;3.60;;;20.90;71.80;;;;;;10333300;28;20700;-29
2021/06/17 13:17:02;;;;;;;6.10;3.53;;;20.90;71.70;;;;;;10355678;28;20195;-29
2021/06/17 13:22:25;;;;;;;3.67;3.37;;;20.90;71.30;;;;;;10367632;28;20585;-29
2021/06/17 13:27:48;;;;;;;18.03;4.47;;;20.90;71.60;;;;;;10367718;28;20201;-31
2021/06/17 13:33:10;;;;;;;31.63;5.50;;;20.90;71.70;;;;;;10368183;28;20222;-30
2021/06/17 13:38:32;;;;;;;16.60;4.50;;;20.80;71.20;;;;;;10369783;28;20205;-29
2021/06/17 13:43:56;;;;;;;5.47;3.00;;;20.80;71.30;;;;;;10523803;28;20229;-30
2021/06/17 13:49:18;;;;;;;5.17;3.00;;;20.80;71.40;;;;;;10470351;28;20600;-29
2021/06/17 13:54:40;;;;;;;6.17;3.47;;;20.80;71.40;;;;;;10362433;28;20214;-29
2021/06/17 14:00:05;;;;;;;5.93;3.07;;;20.80;71.30;;;;;;10363349;28;20198;-29
2021/06/17 14:05:27;;;;;;;7.23;3.30;;;20.70;71.80;;;;;;10513619;28;20693;-31
2021/06/17 14:10:50;;;;;;;4.37;3.10;;;20.70;71.70;;;;;;10423149;28;20206;-29
2021/06/17 14:16:14;;;;;;;3.73;2.77;;;20.70;70.50;;;;;;10360020;28;20217;-31
2021/06/17 14:21:36;;;;;;;2.97;2.60;;;20.80;68.80;;;;;;10358872;28;20222;-33
2021/06/17 14:26:58;;;;;;;3.33;2.93;;;20.80;71.00;;;;;;10360008;28;20680;-31
2021/06/17 14:32:21;;;;;;;3.83;2.60;;;20.70;70.70;;;;;;10360392;28;20233;-28
2021/06/17 14:37:44;;;;;;;2.87;2.67;;;20.70;71.10;;;;;;10351697;28;20210;-32
2021/06/17 14:43:06;;;;;;;3.67;2.90;;;20.60;71.10;;;;;;10387152;28;20233;-30
2021/06/17 14:48:30;;;;;;;3.47;2.67;;;20.70;71.10;;;;;;10399937;28;20205;-30
2021/06/17 14:53:52;;;;;;;3.57;2.70;;;20.70;71.00;;;;;;10378161;28;20226;-29
2021/06/17 14:59:14;;;;;;;3.30;2.60;;;20.70;71.10;;;;;;10325237;28;20195;-28
2021/06/17 15:04:38;;;;;;;4.27;3.00;;;20.70;71.30;;;;;;10325492;28;20594;-29
2021/06/17 15:10:00;;;;;;;3.00;2.63;;;20.70;70.90;;;;;;10356932;28;20203;-29
2021/06/17 15:15:22;;;;;;;4.63;2.63;;;20.70;71.00;;;;;;10348824;28;20237;-30
2021/06/17 15:20:46;;;;;;;2.80;2.50;;;20.70;70.90;;;;;;10364320;28;20194;-29
2021/06/17 15:26:08;;;;;;;3.03;2.77;;;20.70;71.50;;;;;;10364002;28;20209;-29
2021/06/17 15:31:30;;;;;;;4.70;2.80;;;20.70;70.50;;;;;;10363301;28;20195;-31
2021/06/17 15:36:54;;;;;;;2.70;2.50;;;20.70;70.80;;;;;;10335579;27;20194;-29
2021/06/17 15:42:16;;;;;;;5.27;2.97;;;20.70;70.60;;;;;;10363116;28;20305;-29
2021/06/17 15:47:38;;;;;;;3.20;2.90;;;20.60;71.00;;;;;;10360449;28;20198;-30
2021/06/17 15:53:02;;;;;;;3.00;2.67;;;20.60;71.20;;;;;;10366787;28;20210;-29
2021/06/17 15:58:24;;;;;;;3.53;2.70;;;20.50;71.50;;;;;;10363924;28;20582;-30
2021/06/17 16:03:46;;;;;;;3.63;2.70;;;20.50;71.80;;;;;;10358015;28;20222;-30
2021/06/17 16:09:10;;;;;;;4.00;2.70;;;20.50;72.10;;;;;;10365222;28;20216;-30
2021/06/17 16:14:32;;;;;;;3.63;2.50;;;20.50;72.30;;;;;;10353791;28;20622;-31
2021/06/17 16:19:54;;;;;;;3.27;2.80;;;20.50;72.40;;;;;;10353663;28;20191;-30
2021/06/17 16:25:18;;;;;;;2.60;2.40;;;20.50;72.50;;;;;;10356295;28;20223;-31
2021/06/17 16:30:40;;;;;;;6.60;2.87;;;20.50;72.60;;;;;;10365768;28;20202;-31
2021/06/17 16:36:05;;;;;;;3.40;2.83;;;20.50;72.70;;;;;;10363519;28;20226;-31
2021/06/17 16:41:28;;;;;;;3.07;2.50;;;20.50;73.00;;;;;;10356977;28;20219;-29
2021/06/17 16:46:51;;;;;;;8.23;3.20;;;20.50;73.10;;;;;;10372506;28;20198;-28
2021/06/17 16:52:13;;;;;;;4.60;2.60;;;20.50;73.20;;;;;;10366612;28;20206;-29
2021/06/17 16:57:37;;;;;;;2.80;2.60;;;20.40;73.20;;;;;;10371520;28;20195;-29
2021/06/17 17:02:59;;;;;;;2.57;2.33;;;20.40;73.20;;;;;;10370674;28;20215;-28
2021/06/17 17:08:21;;;;;;;7.13;2.50;;;20.50;73.40;;;;;;10369136;28;20581;-30
2021/06/17 17:13:45;;;;;;;4.10;2.47;;;20.40;73.50;;;;;;10368660;28;20214;-31
2021/06/17 17:19:07;;;;;;;2.60;2.40;;;20.40;73.70;;;;;;10364664;28;20206;-30
2021/06/17 17:24:29;;;;;;;2.90;2.63;;;20.40;73.80;;;;;;10327082;28;20230;-31
2021/06/17 17:29:53;;;;;;;2.60;2.40;;;20.40;73.90;;;;;;10323128;28;20214;-29
2021/06/17 17:35:17;;;;;;;5.93;2.60;;;20.40;74.00;;;;;;10363311;22;20226;-27
2021/06/17 17:40:39;;;;;;;2.60;2.40;;;20.40;74.20;;;;;;10344522;28;20683;-29
2021/06/17 17:46:02;;;;;;;3.73;2.33;;;20.40;74.30;;;;;;10326789;28;20594;-29
2021/06/17 17:51:25;;;;;;;2.97;2.33;;;20.40;74.50;;;;;;10324969;28;20214;-31
2021/06/17 17:56:47;;;;;;;2.60;2.40;;;20.40;74.30;;;;;;10320957;28;20219;-29
2021/06/17 18:02:11;;;;;;;3.53;2.50;;;20.40;74.70;;;;;;10320705;28;20219;-30
2021/06/17 18:07:33;;;;;;;2.90;2.60;;;20.40;75.30;;;;;;10320643;28;20280;-30
2021/06/17 18:12:55;;;;;;;3.03;2.47;;;20.30;74.70;;;;;;10317889;28;20215;-28
2021/06/17 18:18:19;;;;;;;4.00;2.63;;;20.40;75.10;;;;;;10319620;28;20195;-33
2021/06/17 18:23:41;;;;;;;2.77;2.37;;;20.40;74.80;;;;;;10321208;28;20713;-29
2021/06/17 18:29:04;;;;;;;2.90;2.70;;;20.40;74.80;;;;;;10325494;28;20708;-29
2021/06/17 18:34:27;;;;;;;2.67;2.47;;;20.30;74.80;;;;;;10325715;28;20602;-29
2021/06/17 18:39:50;;;;;;;2.90;2.60;;;20.30;74.80;;;;;;10322940;28;20696;-29
2021/06/17 18:45:12;;;;;;;2.50;2.30;;;20.30;74.80;;;;;;10324998;28;20740;-30
2021/06/17 18:50:36;;;;;;;2.63;2.40;;;20.30;74.80;;;;;;10324802;28;20199;-31
2021/06/17 18:55:58;;;;;;;2.53;2.33;;;20.30;75.00;;;;;;10320324;28;20211;-32
2021/06/17 19:01:23;;;;;;;2.57;2.37;;;20.30;74.90;;;;;;10321768;28;20218;-33
2021/06/17 19:06:46;;;;;;;2.80;2.60;;;20.40;75.50;;;;;;10328241;28;20222;-32
2021/06/17 19:12:09;;;;;;;3.70;2.83;;;20.30;74.90;;;;;;10322598;28;20281;-30
2021/06/17 19:17:31;;;;;;;3.07;2.23;;;20.40;75.10;;;;;;10324565;28;20229;-28
2021/06/17 19:22:55;;;;;;;3.10;2.70;;;20.40;75.10;;;;;;10323276;28;20223;-28
2021/06/17 19:28:17;;;;;;;3.97;3.47;;;20.30;75.10;;;;;;10323867;28;20199;-28
2021/06/17 19:33:40;;;;;;;4.30;3.30;;;20.30;75.20;;;;;;10322668;28;20223;-32
2021/06/17 19:39:04;;;;;;;3.47;3.10;;;20.30;75.30;;;;;;10324180;28;20609;-28
2021/06/17 19:44:26;;;;;;;4.50;3.27;;;20.40;75.50;;;;;;10342927;28;20225;-28
2021/06/17 19:49:48;;;;;;;3.47;3.10;;;20.40;75.50;;;;;;10322624;28;20206;-28
2021/06/17 19:55:19;;;;;;;3.63;3.23;;;20.40;75.60;;;;;;10368791;28;20682;-29
2021/06/17 20:00:41;;;;;;;3.47;3.13;;;20.40;75.60;;;;;;10533629;28;20578;-28
2021/06/17 20:06:04;;;;;;;3.47;3.17;;;20.40;75.70;;;;;;10440036;28;20219;-28
2021/06/17 20:11:27;;;;;;;3.50;3.20;;;20.40;75.60;;;;;;10323957;28;20198;-31
2021/06/17 20:16:52;;;;;;;4.17;3.07;;;20.40;75.70;;;;;;10353623;28;20214;-29
2021/06/17 20:22:14;;;;;;;3.43;3.00;;;20.40;76.00;;;;;;10327896;28;20230;-28
2021/06/17 20:27:37;;;;;;;6.20;3.23;;;20.40;76.00;;;;;;10329730;28;20206;-29
2021/06/17 20:33:00;;;;;;;3.90;3.60;;;20.40;76.00;;;;;;10435139;28;20216;-31
2021/06/17 20:38:23;;;;;;;3.80;3.50;;;20.40;76.10;;;;;;10342808;28;20690;-27
2021/06/17 20:43:47;;;;;;;6.27;3.67;;;20.40;75.70;;;;;;10328606;28;20741;-32
2021/06/17 20:49:09;;;;;;;4.27;3.70;;;20.40;75.90;;;;;;10331904;28;20210;-28
2021/06/17 20:54:31;;;;;;;4.93;3.40;;;20.30;76.00;;;;;;10325721;28;20215;-32
2021/06/17 20:59:55;;;;;;;4.60;3.70;;;20.40;76.00;;;;;;10337179;28;20195;-29
2021/06/17 21:05:17;;;;;;;4.13;3.57;;;20.30;75.90;;;;;;10328347;28;20714;-29
2021/06/17 21:10:39;;;;;;;3.40;3.10;;;20.40;76.00;;;;;;10327325;28;20211;-29
2021/06/17 21:16:02;;;;;;;3.90;3.60;;;20.30;76.00;;;;;;10323752;28;20226;-28
2021/06/17 21:21:24;;;;;;;4.43;4.03;;;20.40;76.10;;;;;;10409218;28;20192;-27
2021/06/17 21:26:46;;;;;;;4.57;3.60;;;20.40;76.10;;;;;;10540790;27;20219;-28
2021/06/17 21:32:10;;;;;;;4.20;3.80;;;20.40;76.10;;;;;;10369326;28;20199;-29
2021/06/17 21:37:32;;;;;;;4.40;4.00;;;20.40;76.20;;;;;;10327077;28;20577;-30
2021/06/17 21:42:55;;;;;;;5.07;4.07;;;20.40;76.20;;;;;;10303356;28;20711;-30
2021/06/17 21:48:18;;;;;;;5.37;3.97;;;20.40;76.30;;;;;;10313767;28;20203;-30
2021/06/17 21:53:40;;;;;;;4.03;3.73;;;20.30;76.30;;;;;;10327094;28;20215;-27
2021/06/17 21:59:02;;;;;;;4.47;4.07;;;20.30;77.00;;;;;;10326959;28;20199;-28
2021/06/17 22:04:26;;;;;;;4.57;4.13;;;20.30;76.40;;;;;;10325357;28;20227;-28
2021/06/17 22:09:48;;;;;;;4.60;3.97;;;20.30;76.50;;;;;;10326504;28;20693;-30
2021/06/17 22:15:12;;;;;;;4.57;4.17;;;20.30;76.50;;;;;;10303840;28;20299;-29
2021/06/17 22:20:36;;;;;;;4.57;4.17;;;20.30;76.50;;;;;;10298256;28;20203;-32
2021/06/17 22:25:58;;;;;;;4.70;4.30;;;20.30;76.60;;;;;;10325799;28;20234;-29
2021/06/17 22:31:20;;;;;;;5.17;3.90;;;20.30;76.60;;;;;;10325753;28;20202;-30
2021/06/17 22:36:44;;;;;;;5.00;4.23;;;20.30;76.70;;;;;;10325113;28;20222;-29
2021/06/17 22:42:07;;;;;;;4.43;4.03;;;20.30;76.70;;;;;;10323907;28;20203;-30
2021/06/17 22:47:29;;;;;;;4.80;4.40;;;20.30;76.70;;;;;;10325742;28;20203;-29
2021/06/17 22:52:53;;;;;;;5.17;4.63;;;20.30;76.60;;;;;;10324633;28;20590;-28
2021/06/17 22:58:15;;;;;;;4.50;4.07;;;20.30;76.70;;;;;;10324772;28;20203;-29
2021/06/17 23:03:37;;;;;;;4.70;4.30;;;20.30;76.80;;;;;;10319076;28;20218;-30
2021/06/17 23:09:01;;;;;;;5.53;4.67;;;20.30;76.70;;;;;;10292710;28;20203;-33
2021/06/17 23:14:23;;;;;;;4.53;3.73;;;20.30;76.90;;;;;;10286645;28;20212;-29
2021/06/17 23:19:45;;;;;;;4.90;4.50;;;20.30;76.80;;;;;;10314561;28;20197;-30
2021/06/17 23:25:11;;;;;;;4.90;4.40;;;20.30;77.00;;;;;;10324173;28;20636;-28
2021/06/17 23:30:33;;;;;;;5.53;4.63;;;20.30;76.80;;;;;;10324209;28;20229;-29
2021/06/17 23:35:55;;;;;;;6.23;4.87;;;20.30;77.00;;;;;;10338447;22;20850;-27
2021/06/17 23:41:18;;;;;;;5.60;4.90;;;20.30;77.10;;;;;;10323833;28;20191;-27
2021/06/17 23:46:41;;;;;;;6.17;5.63;;;20.30;76.90;;;;;;10349923;28;20709;-29
2021/06/17 23:52:04;;;;;;;5.77;5.07;;;20.30;77.10;;;;;;10330363;28;20235;-29
2021/06/17 23:57:27;;;;;;;5.50;4.77;;;20.30;77.10;;;;;;10366510;28;20697;-29
